Tuesday, November 21, 2017, 10:50 AM EST
Back to Local

KIAD, Dulles International Airport

Location: Chantilly, VA, United States Lat: 38.933
Local Time: 10:50 AM EST (15:50 GMT) Lon: -77.45
Time Zone: US/Eastern Elev: 311 ft

Show me the last for .
Show Decoded

2017-11-21 09:52 METAR KIAD 211452Z COR 20009KT 10SM FEW250 09/M01 A3013 RMK AO2 SLP203 T00891011
                 58000 =
2017-11-21 08:52 METAR KIAD 211352Z 20012KT 10SM SCT250 06/M02 A3013 RMK AO2 SLP204 T00561017 =
2017-11-21 07:52 METAR KIAD 211252Z 18006KT 10SM SCT250 03/M02 A3013 RMK AO2 SLP205 T00331022 =
2017-11-21 06:52 METAR KIAD 211152Z 19005KT 10SM SCT250 01/M03 A3013 RMK AO2 SLP204 T00111028
                 10039 20011 53003 =
2017-11-21 05:52 METAR KIAD 211052Z 20004KT 10SM FEW250 02/M03 A3012 RMK AO2 SLP202 T00171028 =
2017-11-21 04:52 METAR KIAD 210952Z 19005KT 10SM FEW250 02/M03 A3012 RMK AO2 SLP200 T00221028 =
2017-11-21 03:52 METAR KIAD 210852Z 19009KT 10SM FEW250 03/M03 A3012 RMK AO2 SLP200 T00331028
                 56013 =
2017-11-21 02:52 METAR KIAD 210752Z 17007KT 10SM SCT250 03/M03 A3013 RMK AO2 SLP204 T00331033 =
2017-11-21 01:52 METAR KIAD 210652Z 18010KT 10SM BKN250 03/M03 A3014 RMK AO2 SLP209 T00331028 =
2017-11-21 00:52 METAR KIAD 210552Z 18005KT 10SM SCT250 03/M03 A3016 RMK AO2 SLP214 T00281033
                 10061 20022 58003 =
2017-11-20 23:52 METAR KIAD 210452Z 19006KT 10SM BKN250 02/M03 A3017 RMK AO2 SLP216 T00221033
                 401060017 =
2017-11-20 22:52 METAR KIAD 210352Z 19007KT 10SM SCT250 02/M03 A3017 RMK AO2 SLP218 T00221033 =
2017-11-20 21:52 METAR KIAD 210252Z 20005KT 10SM CLR 03/M04 A3017 RMK AO2 SLP218 T00281039 50002
                 =
2017-11-20 20:52 METAR KIAD 210152Z 19005KT 10SM CLR 04/M05 A3017 RMK AO2 SLP220 T00441050 =
2017-11-20 19:52 METAR KIAD 210052Z 17005KT 10SM CLR 05/M05 A3017 RMK AO2 SLP218 T00501050 =
2017-11-20 18:52 METAR KIAD 202352Z 17004KT 10SM FEW250 06/M04 A3016 RMK AO2 SLP216 T00561044
                 10106 20044 58001 =
2017-11-20 17:52 METAR KIAD 202252Z 18005KT 10SM FEW250 07/M05 A3017 RMK AO2 SLP217 T00671050 =
2017-11-20 16:52 METAR KIAD 202152Z 20004KT 10SM FEW250 08/M05 A3017 RMK AO2 SLP216 T00781050 =
2017-11-20 15:52 METAR KIAD 202052Z 20008KT 10SM FEW250 10/M05 A3016 RMK AO2 SLP215 T01001050
                 56005 =
2017-11-20 14:52 METAR KIAD 201952Z 21012KT 10SM FEW250 11/M06 A3016 RMK AO2 SLP215 T01061056 =
2017-11-20 13:52 METAR KIAD 201852Z 25007KT 10SM FEW250 10/M06 A3017 RMK AO2 SLP217 T01001056 =
2017-11-20 12:52 METAR KIAD 201752Z 24009KT 10SM FEW100 09/M06 A3018 RMK AO2 SLP220 T00891056
                 10094 20022 58011 =
2017-11-20 11:52 METAR KIAD 201652Z 26009KT 210V280 10SM FEW070 08/M06 A3019 RMK AO2 SLP225
                 T00781056 =
2017-11-20 10:52 METAR KIAD 201552Z 26005KT 10SM CLR 07/M06 A3021 RMK AO2 SLP230 T00671056 =

Support USWX by starting your Amazon purchase here.